sensor_id;sensor_type;location;lat;lon;timestamp;P1;durP1;ratioP1;P2;durP2;ratioP2
58581;SDS011;44361;51.476;5.700;2023-07-20T00:02:20;8.25;;;3.25;;
58581;SDS011;44361;51.476;5.700;2023-07-20T00:04:46;6.88;;;3.60;;
58581;SDS011;44361;51.476;5.700;2023-07-20T00:07:11;8.77;;;3.42;;
58581;SDS011;44361;51.476;5.700;2023-07-20T00:09:37;14.85;;;3.85;;
58581;SDS011;44361;51.476;5.700;2023-07-20T00:12:02;10.93;;;4.22;;
58581;SDS011;44361;51.476;5.700;2023-07-20T00:14:28;10.20;;;4.15;;
58581;SDS011;44361;51.476;5.700;2023-07-20T00:16:55;9.85;;;4.55;;
58581;SDS011;44361;51.476;5.700;2023-07-20T00:19:22;8.48;;;3.97;;
58581;SDS011;44361;51.476;5.700;2023-07-20T00:21:49;13.30;;;4.28;;
58581;SDS011;44361;51.476;5.700;2023-07-20T00:24:14;7.00;;;3.80;;
58581;SDS011;44361;51.476;5.700;2023-07-20T00:26:40;6.78;;;3.97;;
58581;SDS011;44361;51.476;5.700;2023-07-20T00:29:05;14.93;;;4.40;;
58581;SDS011;44361;51.476;5.700;2023-07-20T00:31:31;12.27;;;4.07;;
58581;SDS011;44361;51.476;5.700;2023-07-20T00:33:56;9.68;;;4.28;;
58581;SDS011;44361;51.476;5.700;2023-07-20T00:36:22;10.00;;;4.30;;
58581;SDS011;44361;51.476;5.700;2023-07-20T00:38:47;11.63;;;4.07;;
58581;SDS011;44361;51.476;5.700;2023-07-20T00:41:13;9.80;;;4.85;;
58581;SDS011;44361;51.476;5.700;2023-07-20T00:43:39;10.50;;;4.47;;
58581;SDS011;44361;51.476;5.700;2023-07-20T00:46:05;8.07;;;4.80;;
58581;SDS011;44361;51.476;5.700;2023-07-20T00:48:31;6.53;;;4.53;;
58581;SDS011;44361;51.476;5.700;2023-07-20T00:50:58;6.97;;;4.40;;
58581;SDS011;44361;51.476;5.700;2023-07-20T00:53:25;7.75;;;4.60;;
58581;SDS011;44361;51.476;5.700;2023-07-20T00:55:51;11.10;;;4.60;;
58581;SDS011;44361;51.476;5.700;2023-07-20T00:58:17;8.80;;;4.68;;
58581;SDS011;44361;51.476;5.700;2023-07-20T01:00:43;13.27;;;4.80;;
58581;SDS011;44361;51.476;5.700;2023-07-20T01:03:09;9.10;;;4.95;;
58581;SDS011;44361;51.476;5.700;2023-07-20T01:11:23;8.38;;;4.18;;
58581;SDS011;44361;51.476;5.700;2023-07-20T01:14:08;7.38;;;4.18;;
58581;SDS011;44361;51.476;5.700;2023-07-20T01:16:34;13.02;;;5.43;;
58581;SDS011;44361;51.476;5.700;2023-07-20T01:18:59;7.60;;;4.63;;
58581;SDS011;44361;51.476;5.700;2023-07-20T01:21:26;6.28;;;4.45;;
58581;SDS011;44361;51.476;5.700;2023-07-20T01:24:13;9.43;;;4.65;;
58581;SDS011;44361;51.476;5.700;2023-07-20T01:26:54;13.65;;;6.28;;
58581;SDS011;44361;51.476;5.700;2023-07-20T01:32:26;7.25;;;5.45;;
58581;SDS011;44361;51.476;5.700;2023-07-20T01:34:53;11.20;;;5.80;;
58581;SDS011;44361;51.476;5.700;2023-07-20T01:37:21;17.15;;;5.50;;
58581;SDS011;44361;51.476;5.700;2023-07-20T01:39:52;10.75;;;5.75;;
58581;SDS011;44361;51.476;5.700;2023-07-20T01:42:20;11.20;;;5.30;;
58581;SDS011;44361;51.476;5.700;2023-07-20T01:44:53;11.95;;;5.35;;
58581;SDS011;44361;51.476;5.700;2023-07-20T01:47:18;12.40;;;5.05;;
58581;SDS011;44361;51.476;5.700;2023-07-20T01:49:44;12.73;;;5.47;;
58581;SDS011;44361;51.476;5.700;2023-07-20T01:52:10;9.65;;;5.18;;
58581;SDS011;44361;51.476;5.700;2023-07-20T01:54:36;9.80;;;5.55;;
58581;SDS011;44361;51.476;5.700;2023-07-20T01:57:01;12.25;;;5.95;;
58581;SDS011;44361;51.476;5.700;2023-07-20T01:59:27;12.93;;;5.60;;
58581;SDS011;44361;51.476;5.700;2023-07-20T02:01:53;12.75;;;5.60;;
58581;SDS011;44361;51.476;5.700;2023-07-20T02:04:19;13.70;;;5.68;;
58581;SDS011;44361;51.476;5.700;2023-07-20T02:06:44;10.75;;;5.47;;
58581;SDS011;44361;51.476;5.700;2023-07-20T02:09:09;17.42;;;5.20;;
58581;SDS011;44361;51.476;5.700;2023-07-20T02:11:35;11.15;;;5.80;;
58581;SDS011;44361;51.476;5.700;2023-07-20T02:14:00;10.27;;;5.40;;
58581;SDS011;44361;51.476;5.700;2023-07-20T02:16:26;12.68;;;6.07;;
58581;SDS011;44361;51.476;5.700;2023-07-20T02:18:52;9.20;;;4.95;;
58581;SDS011;44361;51.476;5.700;2023-07-20T02:21:18;12.13;;;6.60;;
58581;SDS011;44361;51.476;5.700;2023-07-20T02:23:43;15.07;;;5.90;;
58581;SDS011;44361;51.476;5.700;2023-07-20T02:26:09;16.05;;;6.47;;
58581;SDS011;44361;51.476;5.700;2023-07-20T02:28:34;12.32;;;6.45;;
58581;SDS011;44361;51.476;5.700;2023-07-20T02:31:00;15.15;;;6.47;;
58581;SDS011;44361;51.476;5.700;2023-07-20T02:33:25;18.88;;;8.07;;
58581;SDS011;44361;51.476;5.700;2023-07-20T02:35:51;16.50;;;9.13;;
58581;SDS011;44361;51.476;5.700;2023-07-20T02:38:17;15.32;;;9.02;;
58581;SDS011;44361;51.476;5.700;2023-07-20T02:40:43;18.17;;;10.90;;
58581;SDS011;44361;51.476;5.700;2023-07-20T02:43:08;19.92;;;10.85;;
58581;SDS011;44361;51.476;5.700;2023-07-20T02:45:34;18.25;;;11.07;;
58581;SDS011;44361;51.476;5.700;2023-07-20T02:48:00;22.88;;;12.25;;
58581;SDS011;44361;51.476;5.700;2023-07-20T02:50:26;22.60;;;11.50;;
58581;SDS011;44361;51.476;5.700;2023-07-20T02:52:51;18.23;;;10.98;;
58581;SDS011;44361;51.476;5.700;2023-07-20T02:55:17;20.10;;;11.73;;
58581;SDS011;44361;51.476;5.700;2023-07-20T02:57:42;22.30;;;13.10;;
58581;SDS011;44361;51.476;5.700;2023-07-20T03:00:08;19.52;;;12.07;;
58581;SDS011;44361;51.476;5.700;2023-07-20T03:02:34;18.85;;;11.73;;
58581;SDS011;44361;51.476;5.700;2023-07-20T03:05:00;17.85;;;11.63;;
58581;SDS011;44361;51.476;5.700;2023-07-20T03:07:27;24.00;;;12.68;;
58581;SDS011;44361;51.476;5.700;2023-07-20T03:09:53;16.33;;;11.90;;
58581;SDS011;44361;51.476;5.700;2023-07-20T03:12:20;20.77;;;13.02;;
58581;SDS011;44361;51.476;5.700;2023-07-20T03:14:46;17.02;;;11.50;;
58581;SDS011;44361;51.476;5.700;2023-07-20T03:17:11;18.88;;;12.00;;
58581;SDS011;44361;51.476;5.700;2023-07-20T03:19:37;22.30;;;12.30;;
58581;SDS011;44361;51.476;5.700;2023-07-20T03:22:02;20.45;;;11.45;;
58581;SDS011;44361;51.476;5.700;2023-07-20T03:24:28;21.45;;;12.85;;
58581;SDS011;44361;51.476;5.700;2023-07-20T03:26:53;20.70;;;12.10;;
58581;SDS011;44361;51.476;5.700;2023-07-20T03:29:19;19.35;;;11.68;;
58581;SDS011;44361;51.476;5.700;2023-07-20T03:31:45;18.52;;;12.32;;
58581;SDS011;44361;51.476;5.700;2023-07-20T03:34:10;18.63;;;11.63;;
58581;SDS011;44361;51.476;5.700;2023-07-20T03:36:35;18.85;;;11.80;;
58581;SDS011;44361;51.476;5.700;2023-07-20T03:39:01;19.73;;;11.75;;
58581;SDS011;44361;51.476;5.700;2023-07-20T03:41:28;17.50;;;11.40;;
58581;SDS011;44361;51.476;5.700;2023-07-20T03:43:53;15.82;;;10.38;;
58581;SDS011;44361;51.476;5.700;2023-07-20T03:46:19;21.33;;;11.18;;
58581;SDS011;44361;51.476;5.700;2023-07-20T03:48:45;18.05;;;11.55;;
58581;SDS011;44361;51.476;5.700;2023-07-20T03:51:10;17.55;;;11.57;;
58581;SDS011;44361;51.476;5.700;2023-07-20T03:53:36;19.23;;;11.32;;
58581;SDS011;44361;51.476;5.700;2023-07-20T03:56:01;14.93;;;10.70;;
58581;SDS011;44361;51.476;5.700;2023-07-20T03:58:27;19.05;;;10.50;;
58581;SDS011;44361;51.476;5.700;2023-07-20T04:00:53;13.75;;;9.77;;
58581;SDS011;44361;51.476;5.700;2023-07-20T04:03:19;17.73;;;10.43;;
58581;SDS011;44361;51.476;5.700;2023-07-20T04:05:44;13.35;;;9.50;;
58581;SDS011;44361;51.476;5.700;2023-07-20T04:08:11;17.35;;;9.57;;
58581;SDS011;44361;51.476;5.700;2023-07-20T04:10:37;18.08;;;11.07;;
58581;SDS011;44361;51.476;5.700;2023-07-20T04:13:03;18.27;;;11.02;;
58581;SDS011;44361;51.476;5.700;2023-07-20T04:15:29;14.02;;;10.25;;
58581;SDS011;44361;51.476;5.700;2023-07-20T04:17:55;17.33;;;11.20;;
58581;SDS011;44361;51.476;5.700;2023-07-20T04:20:21;21.17;;;11.63;;
58581;SDS011;44361;51.476;5.700;2023-07-20T04:22:50;16.83;;;10.65;;
58581;SDS011;44361;51.476;5.700;2023-07-20T04:25:17;18.25;;;11.13;;
58581;SDS011;44361;51.476;5.700;2023-07-20T04:27:43;14.90;;;10.90;;
58581;SDS011;44361;51.476;5.700;2023-07-20T04:30:09;19.83;;;11.20;;
58581;SDS011;44361;51.476;5.700;2023-07-20T04:32:36;17.85;;;10.52;;
58581;SDS011;44361;51.476;5.700;2023-07-20T04:35:05;18.42;;;10.15;;
58581;SDS011;44361;51.476;5.700;2023-07-20T04:37:32;19.25;;;12.25;;
58581;SDS011;44361;51.476;5.700;2023-07-20T04:39:57;14.65;;;10.23;;
58581;SDS011;44361;51.476;5.700;2023-07-20T04:42:23;18.52;;;10.40;;
58581;SDS011;44361;51.476;5.700;2023-07-20T04:44:48;15.77;;;11.10;;
58581;SDS011;44361;51.476;5.700;2023-07-20T04:47:14;18.63;;;10.88;;
58581;SDS011;44361;51.476;5.700;2023-07-20T04:49:39;15.82;;;11.43;;
58581;SDS011;44361;51.476;5.700;2023-07-20T04:52:05;18.10;;;11.57;;
58581;SDS011;44361;51.476;5.700;2023-07-20T04:54:31;14.75;;;10.48;;
58581;SDS011;44361;51.476;5.700;2023-07-20T04:56:57;19.10;;;10.32;;
58581;SDS011;44361;51.476;5.700;2023-07-20T04:59:22;16.58;;;10.85;;
58581;SDS011;44361;51.476;5.700;2023-07-20T05:01:48;16.52;;;10.35;;
58581;SDS011;44361;51.476;5.700;2023-07-20T05:04:13;14.85;;;9.95;;
58581;SDS011;44361;51.476;5.700;2023-07-20T05:06:39;16.65;;;10.00;;
58581;SDS011;44361;51.476;5.700;2023-07-20T05:09:04;14.23;;;9.65;;
58581;SDS011;44361;51.476;5.700;2023-07-20T05:11:32;14.23;;;9.85;;
58581;SDS011;44361;51.476;5.700;2023-07-20T05:13:58;14.50;;;9.57;;
58581;SDS011;44361;51.476;5.700;2023-07-20T05:16:23;13.30;;;9.27;;
58581;SDS011;44361;51.476;5.700;2023-07-20T05:18:49;13.50;;;8.65;;
58581;SDS011;44361;51.476;5.700;2023-07-20T05:21:14;12.35;;;6.82;;
58581;SDS011;44361;51.476;5.700;2023-07-20T05:23:40;7.80;;;6.25;;
58581;SDS011;44361;51.476;5.700;2023-07-20T05:26:05;11.38;;;5.75;;
58581;SDS011;44361;51.476;5.700;2023-07-20T05:28:31;8.82;;;5.18;;
58581;SDS011;44361;51.476;5.700;2023-07-20T05:30:56;7.63;;;4.97;;
58581;SDS011;44361;51.476;5.700;2023-07-20T05:33:24;8.05;;;5.05;;
58581;SDS011;44361;51.476;5.700;2023-07-20T05:35:50;6.95;;;4.50;;
58581;SDS011;44361;51.476;5.700;2023-07-20T05:38:15;6.28;;;4.68;;
58581;SDS011;44361;51.476;5.700;2023-07-20T05:40:41;5.05;;;4.10;;
58581;SDS011;44361;51.476;5.700;2023-07-20T05:43:10;5.10;;;3.83;;
58581;SDS011;44361;51.476;5.700;2023-07-20T05:45:36;5.32;;;3.30;;
58581;SDS011;44361;51.476;5.700;2023-07-20T05:48:01;5.65;;;3.72;;
58581;SDS011;44361;51.476;5.700;2023-07-20T05:50:27;3.95;;;2.80;;
58581;SDS011;44361;51.476;5.700;2023-07-20T05:52:53;3.67;;;3.03;;
58581;SDS011;44361;51.476;5.700;2023-07-20T05:55:18;4.55;;;3.05;;
58581;SDS011;44361;51.476;5.700;2023-07-20T05:57:44;4.97;;;3.22;;
58581;SDS011;44361;51.476;5.700;2023-07-20T06:00:10;3.80;;;3.38;;
58581;SDS011;44361;51.476;5.700;2023-07-20T06:02:37;3.75;;;3.15;;
58581;SDS011;44361;51.476;5.700;2023-07-20T06:05:06;3.50;;;2.80;;
58581;SDS011;44361;51.476;5.700;2023-07-20T06:07:34;4.22;;;3.15;;
58581;SDS011;44361;51.476;5.700;2023-07-20T06:10:01;4.30;;;3.22;;
58581;SDS011;44361;51.476;5.700;2023-07-20T06:12:27;3.20;;;2.83;;
58581;SDS011;44361;51.476;5.700;2023-07-20T06:14:53;5.22;;;3.08;;
58581;SDS011;44361;51.476;5.700;2023-07-20T06:17:18;4.43;;;3.28;;
58581;SDS011;44361;51.476;5.700;2023-07-20T06:19:44;9.00;;;4.75;;
58581;SDS011;44361;51.476;5.700;2023-07-20T06:22:09;8.35;;;4.72;;
58581;SDS011;44361;51.476;5.700;2023-07-20T06:24:35;9.00;;;5.55;;
58581;SDS011;44361;51.476;5.700;2023-07-20T06:27:00;5.22;;;4.30;;
58581;SDS011;44361;51.476;5.700;2023-07-20T06:29:26;5.78;;;4.47;;
58581;SDS011;44361;51.476;5.700;2023-07-20T06:31:51;5.53;;;4.68;;
58581;SDS011;44361;51.476;5.700;2023-07-20T06:34:17;6.30;;;5.00;;
58581;SDS011;44361;51.476;5.700;2023-07-20T06:36:42;6.93;;;4.57;;
58581;SDS011;44361;51.476;5.700;2023-07-20T06:39:08;6.50;;;4.68;;
58581;SDS011;44361;51.476;5.700;2023-07-20T06:41:33;6.95;;;5.03;;
58581;SDS011;44361;51.476;5.700;2023-07-20T06:43:59;6.22;;;4.00;;
58581;SDS011;44361;51.476;5.700;2023-07-20T06:46:25;5.97;;;4.40;;
58581;SDS011;44361;51.476;5.700;2023-07-20T06:48:51;6.80;;;4.65;;
58581;SDS011;44361;51.476;5.700;2023-07-20T06:51:16;4.85;;;3.25;;
58581;SDS011;44361;51.476;5.700;2023-07-20T06:53:42;5.63;;;3.30;;
58581;SDS011;44361;51.476;5.700;2023-07-20T06:56:08;4.72;;;3.20;;
58581;SDS011;44361;51.476;5.700;2023-07-20T06:58:34;3.88;;;3.03;;
58581;SDS011;44361;51.476;5.700;2023-07-20T07:01:04;2.35;;;1.58;;
58581;SDS011;44361;51.476;5.700;2023-07-20T07:03:30;2.00;;;1.48;;
58581;SDS011;44361;51.476;5.700;2023-07-20T07:05:56;4.88;;;1.33;;
58581;SDS011;44361;51.476;5.700;2023-07-20T07:08:21;3.17;;;1.70;;
58581;SDS011;44361;51.476;5.700;2023-07-20T07:10:47;2.58;;;2.00;;
58581;SDS011;44361;51.476;5.700;2023-07-20T07:13:12;3.20;;;1.95;;
58581;SDS011;44361;51.476;5.700;2023-07-20T07:15:38;3.30;;;1.92;;
58581;SDS011;44361;51.476;5.700;2023-07-20T07:18:03;6.28;;;2.30;;
58581;SDS011;44361;51.476;5.700;2023-07-20T07:20:29;2.53;;;2.10;;
58581;SDS011;44361;51.476;5.700;2023-07-20T07:22:54;2.95;;;2.35;;
58581;SDS011;44361;51.476;5.700;2023-07-20T07:25:20;4.10;;;2.25;;
58581;SDS011;44361;51.476;5.700;2023-07-20T07:27:46;4.63;;;2.53;;
58581;SDS011;44361;51.476;5.700;2023-07-20T07:30:12;4.40;;;2.40;;
58581;SDS011;44361;51.476;5.700;2023-07-20T07:32:37;3.78;;;2.20;;
58581;SDS011;44361;51.476;5.700;2023-07-20T07:35:03;3.75;;;2.20;;
58581;SDS011;44361;51.476;5.700;2023-07-20T07:37:29;4.55;;;2.75;;
58581;SDS011;44361;51.476;5.700;2023-07-20T07:39:55;3.22;;;2.25;;
58581;SDS011;44361;51.476;5.700;2023-07-20T07:42:20;6.07;;;2.28;;
58581;SDS011;44361;51.476;5.700;2023-07-20T07:44:46;3.05;;;2.17;;
58581;SDS011;44361;51.476;5.700;2023-07-20T07:47:11;3.00;;;2.28;;
58581;SDS011;44361;51.476;5.700;2023-07-20T07:49:37;2.90;;;2.03;;
58581;SDS011;44361;51.476;5.700;2023-07-20T07:52:03;2.85;;;2.05;;
58581;SDS011;44361;51.476;5.700;2023-07-20T07:54:28;3.55;;;2.42;;
58581;SDS011;44361;51.476;5.700;2023-07-20T07:56:54;3.45;;;2.78;;
58581;SDS011;44361;51.476;5.700;2023-07-20T07:59:20;4.15;;;2.28;;
58581;SDS011;44361;51.476;5.700;2023-07-20T08:01:45;3.25;;;2.08;;
58581;SDS011;44361;51.476;5.700;2023-07-20T08:04:11;3.67;;;2.05;;
58581;SDS011;44361;51.476;5.700;2023-07-20T08:06:36;2.72;;;2.40;;
58581;SDS011;44361;51.476;5.700;2023-07-20T08:09:02;2.05;;;1.70;;
58581;SDS011;44361;51.476;5.700;2023-07-20T08:11:28;1.52;;;0.80;;
58581;SDS011;44361;51.476;5.700;2023-07-20T08:13:55;1.60;;;0.73;;
58581;SDS011;44361;51.476;5.700;2023-07-20T08:16:21;2.72;;;1.60;;
58581;SDS011;44361;51.476;5.700;2023-07-20T08:18:47;1.15;;;0.82;;
58581;SDS011;44361;51.476;5.700;2023-07-20T08:21:12;1.85;;;0.88;;
58581;SDS011;44361;51.476;5.700;2023-07-20T08:23:38;2.92;;;1.35;;
58581;SDS011;44361;51.476;5.700;2023-07-20T08:26:03;2.53;;;1.40;;
58581;SDS011;44361;51.476;5.700;2023-07-20T08:28:29;2.75;;;1.45;;
58581;SDS011;44361;51.476;5.700;2023-07-20T08:30:54;2.00;;;1.80;;
58581;SDS011;44361;51.476;5.700;2023-07-20T08:33:20;3.10;;;1.45;;
58581;SDS011;44361;51.476;5.700;2023-07-20T08:35:46;2.50;;;1.40;;
58581;SDS011;44361;51.476;5.700;2023-07-20T08:38:12;4.57;;;1.48;;
58581;SDS011;44361;51.476;5.700;2023-07-20T08:40:41;1.30;;;1.08;;
58581;SDS011;44361;51.476;5.700;2023-07-20T08:43:11;1.88;;;1.00;;
58581;SDS011;44361;51.476;5.700;2023-07-20T08:45:38;1.80;;;1.10;;
58581;SDS011;44361;51.476;5.700;2023-07-20T08:48:05;2.17;;;0.77;;
58581;SDS011;44361;51.476;5.700;2023-07-20T08:50:32;1.63;;;0.93;;
58581;SDS011;44361;51.476;5.700;2023-07-20T08:52:59;1.38;;;0.90;;
58581;SDS011;44361;51.476;5.700;2023-07-20T08:55:25;1.50;;;0.88;;
58581;SDS011;44361;51.476;5.700;2023-07-20T08:57:53;1.25;;;0.75;;
58581;SDS011;44361;51.476;5.700;2023-07-20T09:00:20;3.08;;;0.70;;
58581;SDS011;44361;51.476;5.700;2023-07-20T09:02:48;1.35;;;0.90;;
58581;SDS011;44361;51.476;5.700;2023-07-20T09:05:16;3.38;;;0.80;;
58581;SDS011;44361;51.476;5.700;2023-07-20T09:07:42;1.73;;;0.75;;
58581;SDS011;44361;51.476;5.700;2023-07-20T09:10:08;2.17;;;0.52;;
58581;SDS011;44361;51.476;5.700;2023-07-20T09:12:40;3.42;;;0.98;;
58581;SDS011;44361;51.476;5.700;2023-07-20T09:15:07;1.50;;;0.68;;
58581;SDS011;44361;51.476;5.700;2023-07-20T09:17:34;2.65;;;0.68;;
58581;SDS011;44361;51.476;5.700;2023-07-20T09:20:02;0.60;;;0.60;;
58581;SDS011;44361;51.476;5.700;2023-07-20T09:22:35;1.10;;;0.85;;
58581;SDS011;44361;51.476;5.700;2023-07-20T09:25:15;1.23;;;0.90;;
58581;SDS011;44361;51.476;5.700;2023-07-20T09:30:08;1.23;;;0.65;;
58581;SDS011;44361;51.476;5.700;2023-07-20T09:32:57;0.77;;;0.57;;
58581;SDS011;44361;51.476;5.700;2023-07-20T09:35:23;1.45;;;0.70;;
58581;SDS011;44361;51.476;5.700;2023-07-20T09:37:50;4.18;;;0.90;;
58581;SDS011;44361;51.476;5.700;2023-07-20T09:40:20;1.73;;;0.70;;
58581;SDS011;44361;51.476;5.700;2023-07-20T09:42:46;0.98;;;0.52;;
58581;SDS011;44361;51.476;5.700;2023-07-20T09:45:13;1.83;;;0.80;;
58581;SDS011;44361;51.476;5.700;2023-07-20T09:47:39;1.25;;;0.80;;
58581;SDS011;44361;51.476;5.700;2023-07-20T09:50:08;4.00;;;0.85;;
58581;SDS011;44361;51.476;5.700;2023-07-20T09:52:40;1.02;;;0.55;;
58581;SDS011;44361;51.476;5.700;2023-07-20T09:55:07;2.63;;;0.77;;
58581;SDS011;44361;51.476;5.700;2023-07-20T09:57:33;1.30;;;0.70;;
58581;SDS011;44361;51.476;5.700;2023-07-20T09:59:59;3.03;;;0.75;;
58581;SDS011;44361;51.476;5.700;2023-07-20T10:02:30;1.73;;;0.73;;
58581;SDS011;44361;51.476;5.700;2023-07-20T10:04:58;2.10;;;0.88;;
58581;SDS011;44361;51.476;5.700;2023-07-20T10:07:28;4.50;;;0.80;;
58581;SDS011;44361;51.476;5.700;2023-07-20T10:09:55;2.05;;;0.98;;
58581;SDS011;44361;51.476;5.700;2023-07-20T10:12:24;1.98;;;0.93;;
58581;SDS011;44361;51.476;5.700;2023-07-20T10:14:59;2.30;;;1.17;;
58581;SDS011;44361;51.476;5.700;2023-07-20T10:20:49;3.47;;;0.70;;
58581;SDS011;44361;51.476;5.700;2023-07-20T10:23:16;1.00;;;0.60;;
58581;SDS011;44361;51.476;5.700;2023-07-20T10:25:42;2.25;;;0.77;;
58581;SDS011;44361;51.476;5.700;2023-07-20T10:28:08;0.70;;;0.50;;
58581;SDS011;44361;51.476;5.700;2023-07-20T10:30:36;1.67;;;0.50;;
58581;SDS011;44361;51.476;5.700;2023-07-20T10:33:03;2.47;;;1.00;;
58581;SDS011;44361;51.476;5.700;2023-07-20T10:35:29;2.25;;;0.55;;
58581;SDS011;44361;51.476;5.700;2023-07-20T10:38:02;2.35;;;0.82;;
58581;SDS011;44361;51.476;5.700;2023-07-20T10:40:30;1.48;;;0.70;;
58581;SDS011;44361;51.476;5.700;2023-07-20T10:43:01;1.52;;;0.70;;
58581;SDS011;44361;51.476;5.700;2023-07-20T10:45:41;0.75;;;0.52;;
58581;SDS011;44361;51.476;5.700;2023-07-20T10:48:34;1.48;;;0.60;;
58581;SDS011;44361;51.476;5.700;2023-07-20T10:51:08;1.98;;;0.80;;
58581;SDS011;44361;51.476;5.700;2023-07-20T10:53:39;4.25;;;0.80;;
58581;SDS011;44361;51.476;5.700;2023-07-20T10:56:06;1.85;;;0.90;;
58581;SDS011;44361;51.476;5.700;2023-07-20T10:58:33;2.35;;;0.70;;
58581;SDS011;44361;51.476;5.700;2023-07-20T11:01:00;1.27;;;0.80;;
58581;SDS011;44361;51.476;5.700;2023-07-20T11:03:27;2.58;;;0.85;;
58581;SDS011;44361;51.476;5.700;2023-07-20T11:05:54;1.98;;;0.90;;
58581;SDS011;44361;51.476;5.700;2023-07-20T11:08:37;0.70;;;0.60;;
58581;SDS011;44361;51.476;5.700;2023-07-20T11:11:27;1.65;;;0.82;;
58581;SDS011;44361;51.476;5.700;2023-07-20T11:19:05;0.60;;;0.60;;
58581;SDS011;44361;51.476;5.700;2023-07-20T11:21:35;1.30;;;0.73;;
58581;SDS011;44361;51.476;5.700;2023-07-20T11:24:03;1.20;;;0.77;;
58581;SDS011;44361;51.476;5.700;2023-07-20T11:26:30;1.17;;;0.90;;
58581;SDS011;44361;51.476;5.700;2023-07-20T11:29:04;2.50;;;1.13;;
58581;SDS011;44361;51.476;5.700;2023-07-20T11:31:29;1.00;;;0.50;;
58581;SDS011;44361;51.476;5.700;2023-07-20T11:33:55;2.15;;;0.80;;
58581;SDS011;44361;51.476;5.700;2023-07-20T11:36:20;1.52;;;0.75;;
58581;SDS011;44361;51.476;5.700;2023-07-20T11:38:46;1.40;;;0.77;;
58581;SDS011;44361;51.476;5.700;2023-07-20T11:41:12;0.75;;;0.63;;
58581;SDS011;44361;51.476;5.700;2023-07-20T11:43:38;1.90;;;0.50;;
58581;SDS011;44361;51.476;5.700;2023-07-20T11:46:05;0.80;;;0.52;;
58581;SDS011;44361;51.476;5.700;2023-07-20T11:48:31;1.17;;;0.40;;
58581;SDS011;44361;51.476;5.700;2023-07-20T11:50:56;1.70;;;0.50;;
58581;SDS011;44361;51.476;5.700;2023-07-20T11:53:22;1.33;;;0.50;;
58581;SDS011;44361;51.476;5.700;2023-07-20T11:55:50;1.52;;;0.43;;
58581;SDS011;44361;51.476;5.700;2023-07-20T11:58:16;0.50;;;0.40;;
58581;SDS011;44361;51.476;5.700;2023-07-20T12:00:43;1.33;;;0.47;;
58581;SDS011;44361;51.476;5.700;2023-07-20T12:03:09;1.33;;;0.60;;
58581;SDS011;44361;51.476;5.700;2023-07-20T12:05:37;1.30;;;0.60;;
58581;SDS011;44361;51.476;5.700;2023-07-20T12:08:03;0.73;;;0.40;;
58581;SDS011;44361;51.476;5.700;2023-07-20T12:10:29;2.15;;;0.50;;
58581;SDS011;44361;51.476;5.700;2023-07-20T12:13:00;2.92;;;0.60;;
58581;SDS011;44361;51.476;5.700;2023-07-20T12:15:27;1.52;;;0.47;;
58581;SDS011;44361;51.476;5.700;2023-07-20T12:17:55;1.77;;;0.80;;
58581;SDS011;44361;51.476;5.700;2023-07-20T12:22:51;0.80;;;0.55;;
58581;SDS011;44361;51.476;5.700;2023-07-20T12:25:17;1.40;;;0.60;;
58581;SDS011;44361;51.476;5.700;2023-07-20T12:27:45;0.88;;;0.60;;
58581;SDS011;44361;51.476;5.700;2023-07-20T12:30:11;1.17;;;0.52;;
58581;SDS011;44361;51.476;5.700;2023-07-20T12:32:38;0.60;;;0.55;;
58581;SDS011;44361;51.476;5.700;2023-07-20T12:35:04;1.67;;;0.80;;
58581;SDS011;44361;51.476;5.700;2023-07-20T12:37:31;0.77;;;0.70;;
58581;SDS011;44361;51.476;5.700;2023-07-20T12:39:56;1.33;;;0.70;;
58581;SDS011;44361;51.476;5.700;2023-07-20T12:42:22;2.30;;;0.50;;
58581;SDS011;44361;51.476;5.700;2023-07-20T12:44:48;0.80;;;0.52;;
58581;SDS011;44361;51.476;5.700;2023-07-20T12:47:14;0.80;;;0.45;;
58581;SDS011;44361;51.476;5.700;2023-07-20T12:49:40;1.10;;;0.50;;
58581;SDS011;44361;51.476;5.700;2023-07-20T12:52:10;2.38;;;0.50;;
58581;SDS011;44361;51.476;5.700;2023-07-20T12:54:36;0.70;;;0.50;;
58581;SDS011;44361;51.476;5.700;2023-07-20T12:57:01;3.00;;;0.50;;
58581;SDS011;44361;51.476;5.700;2023-07-20T12:59:28;0.93;;;0.50;;
58581;SDS011;44361;51.476;5.700;2023-07-20T13:01:54;1.60;;;0.50;;
58581;SDS011;44361;51.476;5.700;2023-07-20T13:04:19;3.28;;;0.50;;
58581;SDS011;44361;51.476;5.700;2023-07-20T13:06:45;0.75;;;0.40;;
58581;SDS011;44361;51.476;5.700;2023-07-20T13:09:10;3.75;;;0.50;;
58581;SDS011;44361;51.476;5.700;2023-07-20T13:11:36;1.08;;;0.60;;
58581;SDS011;44361;51.476;5.700;2023-07-20T13:14:01;2.40;;;0.45;;
58581;SDS011;44361;51.476;5.700;2023-07-20T13:16:27;1.20;;;0.70;;
58581;SDS011;44361;51.476;5.700;2023-07-20T13:18:52;2.03;;;0.60;;
58581;SDS011;44361;51.476;5.700;2023-07-20T13:21:18;0.93;;;0.50;;
58581;SDS011;44361;51.476;5.700;2023-07-20T13:23:47;1.05;;;0.77;;
58581;SDS011;44361;51.476;5.700;2023-07-20T13:26:13;0.95;;;0.50;;
58581;SDS011;44361;51.476;5.700;2023-07-20T13:28:40;1.58;;;0.60;;
58581;SDS011;44361;51.476;5.700;2023-07-20T13:31:05;1.13;;;0.70;;
58581;SDS011;44361;51.476;5.700;2023-07-20T13:33:31;2.90;;;0.60;;
58581;SDS011;44361;51.476;5.700;2023-07-20T13:35:56;1.67;;;0.73;;
58581;SDS011;44361;51.476;5.700;2023-07-20T13:38:22;2.47;;;0.80;;
58581;SDS011;44361;51.476;5.700;2023-07-20T13:40:47;2.92;;;0.70;;
58581;SDS011;44361;51.476;5.700;2023-07-20T13:43:13;1.55;;;0.95;;
58581;SDS011;44361;51.476;5.700;2023-07-20T13:45:38;0.65;;;0.65;;
58581;SDS011;44361;51.476;5.700;2023-07-20T13:48:04;3.53;;;0.77;;
58581;SDS011;44361;51.476;5.700;2023-07-20T13:50:29;1.45;;;0.73;;
58581;SDS011;44361;51.476;5.700;2023-07-20T13:52:55;1.20;;;0.80;;
58581;SDS011;44361;51.476;5.700;2023-07-20T13:55:20;1.45;;;0.93;;
58581;SDS011;44361;51.476;5.700;2023-07-20T13:57:47;1.00;;;0.63;;
58581;SDS011;44361;51.476;5.700;2023-07-20T14:00:12;5.63;;;1.02;;
58581;SDS011;44361;51.476;5.700;2023-07-20T14:02:38;1.20;;;0.70;;
58581;SDS011;44361;51.476;5.700;2023-07-20T14:05:04;1.33;;;0.73;;
58581;SDS011;44361;51.476;5.700;2023-07-20T14:07:30;1.02;;;0.63;;
58581;SDS011;44361;51.476;5.700;2023-07-20T14:09:56;1.40;;;0.80;;
58581;SDS011;44361;51.476;5.700;2023-07-20T14:12:21;3.65;;;0.93;;
58581;SDS011;44361;51.476;5.700;2023-07-20T14:14:47;2.40;;;0.75;;
58581;SDS011;44361;51.476;5.700;2023-07-20T14:17:12;1.58;;;0.88;;
58581;SDS011;44361;51.476;5.700;2023-07-20T14:19:38;1.98;;;0.80;;
58581;SDS011;44361;51.476;5.700;2023-07-20T14:22:04;1.30;;;0.77;;
58581;SDS011;44361;51.476;5.700;2023-07-20T14:24:29;1.63;;;0.70;;
58581;SDS011;44361;51.476;5.700;2023-07-20T14:26:55;2.78;;;0.88;;
58581;SDS011;44361;51.476;5.700;2023-07-20T14:29:21;1.83;;;0.88;;
58581;SDS011;44361;51.476;5.700;2023-07-20T14:31:46;1.38;;;0.73;;
58581;SDS011;44361;51.476;5.700;2023-07-20T14:34:15;0.93;;;0.80;;
58581;SDS011;44361;51.476;5.700;2023-07-20T14:36:44;5.95;;;1.10;;
58581;SDS011;44361;51.476;5.700;2023-07-20T14:39:10;0.88;;;0.63;;
58581;SDS011;44361;51.476;5.700;2023-07-20T14:41:36;3.03;;;1.00;;
58581;SDS011;44361;51.476;5.700;2023-07-20T14:44:02;1.77;;;0.88;;
58581;SDS011;44361;51.476;5.700;2023-07-20T14:46:27;2.15;;;1.20;;
58581;SDS011;44361;51.476;5.700;2023-07-20T14:48:53;2.00;;;1.10;;
58581;SDS011;44361;51.476;5.700;2023-07-20T14:51:19;1.40;;;0.70;;
58581;SDS011;44361;51.476;5.700;2023-07-20T14:53:44;1.10;;;0.75;;
58581;SDS011;44361;51.476;5.700;2023-07-20T14:56:10;2.28;;;1.23;;
58581;SDS011;44361;51.476;5.700;2023-07-20T14:58:35;1.80;;;0.85;;
58581;SDS011;44361;51.476;5.700;2023-07-20T15:01:02;4.07;;;1.00;;